createdAt,value
2023-05-14T00:00:55.017Z,9.70
2023-05-14T00:03:21.865Z,9.60
2023-05-14T00:05:48.913Z,9.50
2023-05-14T00:08:15.961Z,9.60
2023-05-14T00:10:42.844Z,9.60
2023-05-14T00:13:10.858Z,9.50
2023-05-14T00:15:37.857Z,9.50
2023-05-14T00:18:04.820Z,9.50
2023-05-14T00:20:33.012Z,9.60
2023-05-14T00:22:59.871Z,9.70
2023-05-14T00:25:26.732Z,9.80
2023-05-14T00:27:54.722Z,9.70
2023-05-14T00:30:21.840Z,9.70
2023-05-14T00:32:50.267Z,9.60
2023-05-14T00:35:17.176Z,9.70
2023-05-14T00:37:43.941Z,9.80
2023-05-14T00:40:13.121Z,9.70
2023-05-14T00:42:41.776Z,9.70
2023-05-14T00:45:09.015Z,9.60
2023-05-14T00:47:37.211Z,9.60
2023-05-14T00:50:04.571Z,9.60
2023-05-14T00:52:33.195Z,9.60
2023-05-14T00:55:00.742Z,9.50
2023-05-14T00:57:28.924Z,9.50
2023-05-14T00:59:55.770Z,9.40
2023-05-14T01:02:22.655Z,9.40
2023-05-14T01:04:51.104Z,9.40
2023-05-14T01:07:32.765Z,9.40
2023-05-14T01:10:12.258Z,9.40
2023-05-14T01:12:54.831Z,9.40
2023-05-14T01:15:26.588Z,9.40
2023-05-14T01:18:20.284Z,9.40
2023-05-14T01:20:49.629Z,9.40
2023-05-14T01:23:16.447Z,9.30
2023-05-14T01:25:44.302Z,9.20
2023-05-14T01:28:17.558Z,9.20
2023-05-14T01:30:58.675Z,9.10
2023-05-14T01:33:26.469Z,9.10
2023-05-14T01:35:53.834Z,9.10
2023-05-14T01:38:20.999Z,9.10
2023-05-14T01:40:48.336Z,9.10
2023-05-14T01:43:15.902Z,9.10
2023-05-14T01:45:42.960Z,9.10
2023-05-14T01:48:09.944Z,9.00
2023-05-14T01:50:37.498Z,9.00
2023-05-14T01:53:04.337Z,9.00
2023-05-14T01:55:32.383Z,8.90
2023-05-14T01:57:59.232Z,9.00
2023-05-14T02:00:26.356Z,8.90
2023-05-14T02:02:54.612Z,8.90
2023-05-14T02:05:21.702Z,8.80
2023-05-14T02:07:48.541Z,8.90
2023-05-14T02:10:16.441Z,8.90
2023-05-14T02:12:43.283Z,8.80
2023-05-14T02:15:11.700Z,8.90
2023-05-14T02:17:38.653Z,8.90
2023-05-14T02:20:06.122Z,8.80
2023-05-14T02:22:33.202Z,8.70
2023-05-14T02:25:00.260Z,8.70
2023-05-14T02:27:29.598Z,8.60
2023-05-14T02:30:00.776Z,8.70
2023-05-14T02:32:28.397Z,8.70
2023-05-14T02:34:56.081Z,8.70
2023-05-14T02:37:23.016Z,8.60
2023-05-14T02:39:50.907Z,8.60
2023-05-14T02:42:17.714Z,8.60
2023-05-14T02:44:44.568Z,8.50
2023-05-14T02:47:12.759Z,8.50
2023-05-14T02:49:40.377Z,8.40
2023-05-14T02:52:08.788Z,8.40
2023-05-14T02:54:35.714Z,8.30
2023-05-14T02:57:02.581Z,8.30
2023-05-14T02:59:31.815Z,8.30
2023-05-14T03:02:00.209Z,8.30
2023-05-14T03:04:27.457Z,8.30
2023-05-14T03:06:54.395Z,8.30
2023-05-14T03:09:22.274Z,8.30
2023-05-14T03:11:49.475Z,8.20
2023-05-14T03:14:17.453Z,8.10
2023-05-14T03:16:44.382Z,8.00
2023-05-14T03:19:11.361Z,8.00
2023-05-14T03:21:39.326Z,7.90
2023-05-14T03:24:07.218Z,7.90
2023-05-14T03:26:35.298Z,8.00
2023-05-14T03:29:02.702Z,8.00
2023-05-14T03:31:31.599Z,8.00
2023-05-14T03:33:58.490Z,7.90
2023-05-14T03:36:26.473Z,7.90
2023-05-14T03:38:53.286Z,7.80
2023-05-14T03:41:22.604Z,7.90
2023-05-14T03:43:49.544Z,7.90
2023-05-14T03:46:16.391Z,8.00
2023-05-14T03:48:44.682Z,7.90
2023-05-14T03:51:12.347Z,7.90
2023-05-14T03:53:40.492Z,7.90
2023-05-14T03:56:07.384Z,7.80
2023-05-14T03:58:34.283Z,7.80
2023-05-14T04:01:01.291Z,7.80
2023-05-14T04:03:28.289Z,7.90
2023-05-14T04:05:56.650Z,7.80
2023-05-14T04:08:23.849Z,7.80
2023-05-14T04:10:52.448Z,7.80
2023-05-14T04:13:19.338Z,7.80
2023-05-14T04:15:46.167Z,7.80
2023-05-14T04:18:13.048Z,7.90
2023-05-14T04:20:40.640Z,7.80
2023-05-14T04:23:07.646Z,7.90
2023-05-14T04:25:36.315Z,8.00
2023-05-14T04:28:03.348Z,8.00
2023-05-14T04:30:30.321Z,8.00
2023-05-14T04:32:57.474Z,8.00
2023-05-14T04:35:25.240Z,8.00
2023-05-14T04:37:52.389Z,8.00
2023-05-14T04:40:19.413Z,8.00
2023-05-14T04:42:48.468Z,8.10
2023-05-14T04:45:15.431Z,8.10
2023-05-14T04:47:42.332Z,8.10
2023-05-14T04:50:09.869Z,8.20
2023-05-14T04:52:36.704Z,8.20
2023-05-14T04:55:03.688Z,8.30
2023-05-14T04:57:31.006Z,8.30
2023-05-14T04:59:57.979Z,8.30
2023-05-14T05:02:24.921Z,8.40
2023-05-14T05:04:51.895Z,8.40
2023-05-14T05:07:22.321Z,8.50
2023-05-14T05:09:49.853Z,8.50
2023-05-14T05:12:16.784Z,8.50
2023-05-14T05:14:44.394Z,8.60
2023-05-14T05:17:11.241Z,8.60
2023-05-14T05:19:43.648Z,8.60
2023-05-14T05:22:11.374Z,8.70
2023-05-14T05:24:38.203Z,8.70
2023-05-14T05:27:05.654Z,8.70
2023-05-14T05:29:32.522Z,8.80
2023-05-14T05:31:59.442Z,8.80
2023-05-14T05:34:28.082Z,8.90
2023-05-14T05:36:54.962Z,8.90
2023-05-14T05:39:21.763Z,8.90
2023-05-14T05:41:49.141Z,8.90
2023-05-14T05:44:15.967Z,9.00
2023-05-14T05:46:43.159Z,9.00
2023-05-14T05:49:10.993Z,9.00
2023-05-14T05:51:37.883Z,9.10
2023-05-14T05:54:05.792Z,9.10
2023-05-14T05:56:32.658Z,9.20
2023-05-14T05:58:59.624Z,9.20
2023-05-14T06:01:27.357Z,9.30
2023-05-14T06:03:54.295Z,9.40
2023-05-14T06:06:24.900Z,9.40
2023-05-14T06:08:51.746Z,9.40
2023-05-14T06:11:19.837Z,9.50
2023-05-14T06:13:46.650Z,9.50
2023-05-14T06:16:13.579Z,9.50
2023-05-14T06:18:40.637Z,9.60
2023-05-14T06:21:07.521Z,9.60
2023-05-14T06:23:38.452Z,9.60
2023-05-14T06:26:05.959Z,9.70
2023-05-14T06:28:33.631Z,9.70
2023-05-14T06:31:00.594Z,9.70
2023-05-14T06:33:31.024Z,9.70
2023-05-14T06:36:05.153Z,9.80
2023-05-14T06:38:32.055Z,9.90
2023-05-14T06:40:58.961Z,9.90
2023-05-14T06:43:27.022Z,9.90
2023-05-14T06:45:54.003Z,10.00
2023-05-14T06:48:22.957Z,10.00
2023-05-14T06:50:50.016Z,10.00
2023-05-14T06:53:17.068Z,10.10
2023-05-14T06:55:45.074Z,10.10
2023-05-14T06:58:11.995Z,10.10
2023-05-14T07:00:38.825Z,10.20
2023-05-14T07:03:06.159Z,10.20
2023-05-14T07:05:33.176Z,10.30
2023-05-14T07:08:01.247Z,10.30
2023-05-14T07:10:28.090Z,10.40
2023-05-14T07:12:55.173Z,10.40
2023-05-14T07:15:22.479Z,10.50
2023-05-14T07:17:49.492Z,10.60
2023-05-14T07:20:17.151Z,10.60
2023-05-14T07:22:43.915Z,10.70
2023-05-14T07:25:10.829Z,10.80
2023-05-14T07:27:38.715Z,10.90
2023-05-14T07:30:07.259Z,10.90
2023-05-14T07:32:38.015Z,11.00
2023-05-14T07:35:07.033Z,11.10
2023-05-14T07:37:33.904Z,11.10
2023-05-14T07:40:00.809Z,11.20
2023-05-14T07:42:36.040Z,11.30
2023-05-14T07:45:05.762Z,11.40
2023-05-14T07:47:32.936Z,11.50
2023-05-14T07:50:00.912Z,11.60
2023-05-14T07:52:28.285Z,11.70
2023-05-14T07:54:56.137Z,11.80
2023-05-14T07:57:26.572Z,12.00
2023-05-14T07:59:55.243Z,12.10
2023-05-14T08:02:24.149Z,12.30
2023-05-14T08:04:51.065Z,12.50
2023-05-14T08:07:17.959Z,12.60
2023-05-14T08:09:45.902Z,12.70
2023-05-14T08:12:12.877Z,12.70
2023-05-14T08:14:41.190Z,12.80
2023-05-14T08:17:08.206Z,12.90
2023-05-14T08:19:35.047Z,13.10
2023-05-14T08:22:03.720Z,13.20
2023-05-14T08:24:31.579Z,13.30
2023-05-14T08:26:58.442Z,13.40
2023-05-14T08:29:27.138Z,13.50
2023-05-14T08:31:54.047Z,13.50
2023-05-14T08:34:20.959Z,13.60
2023-05-14T08:36:47.755Z,13.60
2023-05-14T08:39:15.964Z,13.70
2023-05-14T08:41:43.148Z,13.80
2023-05-14T08:44:14.281Z,13.90
2023-05-14T08:46:42.498Z,14.00
2023-05-14T08:49:15.530Z,14.10
2023-05-14T08:51:48.360Z,14.20
2023-05-14T08:54:18.364Z,14.30
2023-05-14T08:56:50.459Z,14.50
2023-05-14T08:59:19.135Z,14.50
2023-05-14T09:01:49.415Z,14.70
2023-05-14T09:04:17.693Z,14.80
2023-05-14T09:06:45.575Z,15.00
2023-05-14T09:09:13.179Z,15.10
2023-05-14T09:11:45.668Z,15.30
2023-05-14T09:14:13.850Z,15.40
2023-05-14T09:16:43.175Z,15.60
2023-05-14T09:19:10.176Z,15.60
2023-05-14T09:21:37.151Z,15.70
2023-05-14T09:24:05.489Z,15.70
2023-05-14T09:26:33.596Z,15.70
2023-05-14T09:29:04.342Z,15.70
2023-05-14T09:31:32.854Z,15.70
2023-05-14T09:34:00.108Z,15.60
2023-05-14T09:36:28.613Z,15.50
2023-05-14T09:39:00.828Z,15.40
2023-05-14T09:41:27.709Z,15.30
2023-05-14T09:43:56.839Z,15.40
2023-05-14T09:46:24.114Z,15.40
2023-05-14T09:48:52.618Z,15.30
2023-05-14T09:51:19.884Z,15.20
2023-05-14T09:53:48.172Z,15.10
2023-05-14T09:56:15.127Z,15.10
2023-05-14T09:58:43.567Z,15.10
2023-05-14T10:01:10.609Z,14.90
2023-05-14T10:03:37.526Z,14.90
2023-05-14T10:06:06.458Z,14.80
2023-05-14T10:08:36.722Z,14.70
2023-05-14T10:11:08.699Z,14.70
2023-05-14T10:13:41.754Z,14.60
2023-05-14T10:16:09.964Z,14.50
2023-05-14T10:18:41.354Z,14.40
2023-05-14T10:21:08.462Z,14.30
2023-05-14T10:23:37.850Z,14.20
2023-05-14T10:26:05.023Z,14.20
2023-05-14T10:28:32.602Z,14.10
2023-05-14T10:31:00.767Z,14.10
2023-05-14T10:33:28.815Z,14.00
2023-05-14T10:36:06.426Z,14.00
2023-05-14T10:38:34.876Z,14.00
2023-05-14T10:41:12.273Z,14.00
2023-05-14T10:43:41.045Z,14.00
2023-05-14T10:46:08.870Z,14.00
2023-05-14T10:48:40.265Z,14.00
2023-05-14T10:51:09.312Z,14.00
2023-05-14T10:53:38.914Z,13.90
2023-05-14T10:56:14.003Z,13.90
2023-05-14T10:58:43.376Z,13.90
2023-05-14T11:01:12.471Z,13.80
2023-05-14T11:03:42.307Z,13.80
2023-05-14T11:06:10.371Z,13.70
2023-05-14T11:08:37.475Z,13.70
2023-05-14T11:11:04.371Z,13.70
2023-05-14T11:13:31.364Z,13.60
2023-05-14T11:16:06.294Z,13.60
2023-05-14T11:18:43.386Z,13.60
2023-05-14T11:21:10.319Z,13.60
2023-05-14T11:23:37.164Z,13.50
2023-05-14T11:26:06.038Z,13.50
2023-05-14T11:28:32.954Z,13.60
2023-05-14T11:31:01.194Z,13.50
2023-05-14T11:33:28.236Z,13.50
2023-05-14T11:35:55.040Z,13.50
2023-05-14T11:38:23.351Z,13.50
2023-05-14T11:40:54.850Z,13.50
2023-05-14T11:43:26.183Z,13.40
2023-05-14T11:45:57.352Z,13.50
2023-05-14T11:48:24.263Z,13.60
2023-05-14T11:50:52.590Z,13.60
2023-05-14T11:53:20.133Z,13.60
2023-05-14T11:55:47.562Z,13.60
2023-05-14T11:58:15.857Z,13.60
2023-05-14T12:00:45.829Z,13.60
2023-05-14T12:03:12.807Z,13.70
2023-05-14T12:05:40.868Z,13.70
2023-05-14T12:08:26.296Z,13.80
2023-05-14T12:10:54.910Z,13.80
2023-05-14T12:13:22.355Z,13.80
2023-05-14T12:15:54.928Z,13.80
2023-05-14T12:18:25.815Z,13.80
2023-05-14T12:20:53.404Z,13.80
2023-05-14T12:23:31.122Z,13.70
2023-05-14T12:26:08.962Z,13.60
2023-05-14T12:28:38.604Z,13.60
2023-05-14T12:31:05.661Z,13.60
2023-05-14T12:33:32.599Z,13.60
2023-05-14T12:36:19.812Z,13.60
2023-05-14T12:38:49.150Z,13.50
2023-05-14T12:41:16.408Z,13.40
2023-05-14T12:43:43.615Z,13.30
2023-05-14T12:46:11.198Z,13.20
2023-05-14T12:48:38.280Z,13.10
2023-05-14T12:51:08.436Z,12.80
2023-05-14T12:53:35.578Z,12.80
2023-05-14T12:56:02.554Z,12.80
2023-05-14T12:58:29.921Z,12.80
2023-05-14T13:00:56.735Z,12.80
2023-05-14T13:03:24.509Z,12.80
2023-05-14T13:05:52.582Z,12.80
2023-05-14T13:08:27.279Z,12.70
2023-05-14T13:10:54.335Z,12.70
2023-05-14T13:13:21.248Z,12.70
2023-05-14T13:15:48.555Z,12.80
2023-05-14T13:18:15.836Z,12.80
2023-05-14T13:20:43.499Z,12.80
2023-05-14T13:23:10.684Z,12.70
2023-05-14T13:25:37.564Z,12.80
2023-05-14T13:28:05.316Z,12.70
2023-05-14T13:30:32.442Z,12.80
2023-05-14T13:33:01.003Z,12.80
2023-05-14T13:35:28.135Z,12.90
2023-05-14T13:37:56.303Z,12.80
2023-05-14T13:40:23.415Z,12.80
2023-05-14T13:42:50.235Z,12.80
2023-05-14T13:45:18.245Z,12.90
2023-05-14T13:47:45.123Z,12.90
2023-05-14T13:50:12.051Z,12.90
2023-05-14T13:52:45.782Z,12.90
2023-05-14T13:55:12.617Z,12.90
2023-05-14T13:57:43.211Z,13.00
2023-05-14T14:00:13.601Z,13.10
2023-05-14T14:02:40.515Z,13.10
2023-05-14T14:05:09.763Z,13.20
2023-05-14T14:07:36.675Z,13.20
2023-05-14T14:10:05.259Z,13.20
2023-05-14T14:12:32.254Z,13.20
2023-05-14T14:14:59.260Z,13.20
2023-05-14T14:17:26.599Z,13.20
2023-05-14T14:19:53.397Z,13.20
2023-05-14T14:22:21.340Z,13.20
2023-05-14T14:24:48.162Z,13.20
2023-05-14T14:27:14.958Z,13.20
2023-05-14T14:29:42.462Z,13.20
2023-05-14T14:32:11.736Z,13.20
2023-05-14T14:34:38.841Z,13.20
2023-05-14T14:37:06.300Z,13.20
2023-05-14T14:39:34.176Z,13.20
2023-05-14T14:42:01.116Z,13.30
2023-05-14T14:44:28.011Z,13.30
2023-05-14T14:46:55.963Z,13.30
2023-05-14T14:49:23.511Z,13.30
2023-05-14T14:51:52.651Z,13.30
2023-05-14T14:54:19.478Z,13.30
2023-05-14T14:56:47.370Z,13.30
2023-05-14T14:59:14.268Z,13.30
2023-05-14T15:01:41.150Z,13.30
2023-05-14T15:04:08.905Z,13.30
2023-05-14T15:06:38.354Z,13.30
2023-05-14T15:09:05.477Z,13.30
2023-05-14T15:11:32.349Z,13.30
2023-05-14T15:14:00.474Z,13.30
2023-05-14T15:16:27.423Z,13.30
2023-05-14T15:18:54.395Z,13.20
2023-05-14T15:21:23.373Z,13.20
2023-05-14T15:23:50.189Z,13.20
2023-05-14T15:26:17.291Z,13.20
2023-05-14T15:28:44.310Z,13.20
2023-05-14T15:31:14.376Z,13.10
2023-05-14T15:33:41.878Z,13.10
2023-05-14T15:36:12.837Z,13.10
2023-05-14T15:38:43.098Z,13.10
2023-05-14T15:41:13.536Z,13.10
2023-05-14T15:43:43.249Z,13.20
2023-05-14T15:46:11.142Z,13.20
2023-05-14T15:48:38.052Z,13.20
2023-05-14T15:51:05.976Z,13.20
2023-05-14T15:53:35.834Z,13.20
2023-05-14T15:56:03.172Z,13.20
2023-05-14T15:58:32.986Z,13.20
2023-05-14T16:01:04.767Z,13.20
2023-05-14T16:03:31.649Z,13.20
2023-05-14T16:05:59.234Z,13.20
2023-05-14T16:08:26.051Z,13.20
2023-05-14T16:10:52.914Z,13.10
2023-05-14T16:13:20.793Z,13.10
2023-05-14T16:15:48.276Z,13.10
2023-05-14T16:18:16.516Z,13.20
2023-05-14T16:20:49.077Z,13.20
2023-05-14T16:23:25.234Z,13.10
2023-05-14T16:25:52.043Z,13.10
2023-05-14T16:28:19.005Z,13.10
2023-05-14T16:30:49.598Z,13.10
2023-05-14T16:33:20.662Z,13.10
2023-05-14T16:35:50.381Z,13.10
2023-05-14T16:38:19.765Z,13.10
2023-05-14T16:40:50.168Z,13.00
2023-05-14T16:43:17.043Z,13.10
2023-05-14T16:45:49.788Z,13.00
2023-05-14T16:48:20.743Z,13.00
2023-05-14T16:50:48.929Z,13.00
2023-05-14T16:53:20.007Z,13.00
2023-05-14T16:55:48.660Z,13.00
2023-05-14T16:58:15.769Z,13.00
2023-05-14T17:00:43.723Z,13.00
2023-05-14T17:03:12.968Z,13.00
2023-05-14T17:05:39.829Z,13.00
2023-05-14T17:08:06.924Z,13.00
2023-05-14T17:10:36.434Z,12.90
2023-05-14T17:13:04.339Z,12.90
2023-05-14T17:15:31.281Z,12.90
2023-05-14T17:17:58.255Z,12.90
2023-05-14T17:20:27.161Z,12.90
2023-05-14T17:22:54.048Z,12.90
2023-05-14T17:25:24.065Z,12.90
2023-05-14T17:27:51.160Z,12.90
2023-05-14T17:30:18.597Z,12.90
2023-05-14T17:32:45.571Z,12.90
2023-05-14T17:35:13.749Z,12.80
2023-05-14T17:37:45.229Z,12.90
2023-05-14T17:40:12.568Z,12.90
2023-05-14T17:42:39.399Z,12.80
2023-05-14T17:45:07.226Z,12.80
2023-05-14T17:47:34.181Z,12.80
2023-05-14T17:50:04.242Z,12.80
2023-05-14T17:52:32.174Z,12.80
2023-05-14T17:54:59.092Z,12.80
2023-05-14T17:57:26.616Z,12.80
2023-05-14T17:59:54.743Z,12.80
2023-05-14T18:02:22.284Z,12.70
2023-05-14T18:04:52.197Z,12.70
2023-05-14T18:07:19.242Z,12.70
2023-05-14T18:09:46.735Z,12.80
2023-05-14T18:12:16.770Z,12.70
2023-05-14T18:14:45.449Z,12.70
2023-05-14T18:17:15.711Z,12.70
2023-05-14T18:19:43.402Z,12.70
2023-05-14T18:22:10.622Z,12.60
2023-05-14T18:24:37.422Z,12.60
2023-05-14T18:27:11.719Z,12.70
2023-05-14T18:29:38.636Z,12.70
2023-05-14T18:32:05.934Z,12.70
2023-05-14T18:34:33.695Z,12.70
2023-05-14T18:37:02.715Z,12.70
2023-05-14T18:39:33.100Z,12.70
2023-05-14T18:42:00.688Z,12.70
2023-05-14T18:44:27.655Z,12.70
2023-05-14T18:46:56.240Z,12.70
2023-05-14T18:49:23.188Z,12.60
2023-05-14T18:51:51.233Z,12.60
2023-05-14T18:54:18.155Z,12.60
2023-05-14T18:56:47.491Z,12.60
2023-05-14T18:59:14.684Z,12.60
2023-05-14T19:01:41.607Z,12.60
2023-05-14T19:04:11.603Z,12.60
2023-05-14T19:06:40.492Z,12.60
2023-05-14T19:09:08.859Z,12.60
2023-05-14T19:11:36.556Z,12.60
2023-05-14T19:14:03.428Z,12.60
2023-05-14T19:16:31.237Z,12.50
2023-05-14T19:18:58.186Z,12.50
2023-05-14T19:21:25.143Z,12.50
2023-05-14T19:23:52.491Z,12.50
2023-05-14T19:26:19.310Z,12.50
2023-05-14T19:28:46.117Z,12.50
2023-05-14T19:31:12.975Z,12.40
2023-05-14T19:33:40.113Z,12.50
2023-05-14T19:36:07.011Z,12.50
2023-05-14T19:38:34.989Z,12.50
2023-05-14T19:41:01.783Z,12.50
2023-05-14T19:43:28.748Z,12.40
2023-05-14T19:45:56.463Z,12.40
2023-05-14T19:48:24.244Z,12.40
2023-05-14T19:50:52.547Z,12.40
2023-05-14T19:53:19.552Z,12.30
2023-05-14T19:55:46.448Z,12.30
2023-05-14T19:58:14.142Z,12.30
2023-05-14T20:00:41.028Z,12.20
2023-05-14T20:03:08.043Z,12.20
2023-05-14T20:05:35.345Z,12.20
2023-05-14T20:08:04.778Z,12.20
2023-05-14T20:10:31.696Z,12.20
2023-05-14T20:12:58.542Z,12.10
2023-05-14T20:15:25.361Z,12.00
2023-05-14T20:17:52.983Z,12.00
2023-05-14T20:20:19.872Z,11.90
2023-05-14T20:22:47.083Z,11.90
2023-05-14T20:25:14.293Z,11.90
2023-05-14T20:27:42.569Z,11.90
2023-05-14T20:30:18.078Z,11.90
2023-05-14T20:32:45.464Z,11.90
2023-05-14T20:35:12.483Z,11.80
2023-05-14T20:37:39.746Z,11.80
2023-05-14T20:40:09.925Z,11.80
2023-05-14T20:42:37.102Z,11.80
2023-05-14T20:45:04.927Z,11.80
2023-05-14T20:47:34.182Z,11.80
2023-05-14T20:50:01.094Z,11.80
2023-05-14T20:52:28.062Z,11.80
2023-05-14T20:54:56.117Z,11.80
2023-05-14T20:57:23.670Z,11.80
2023-05-14T21:00:01.110Z,11.80
2023-05-14T21:02:30.011Z,11.80
2023-05-14T21:05:00.007Z,11.80
2023-05-14T21:07:28.270Z,11.80
2023-05-14T21:09:55.722Z,11.70
2023-05-14T21:12:22.885Z,11.80
2023-05-14T21:14:49.682Z,11.70
2023-05-14T21:17:20.073Z,11.80
2023-05-14T21:19:47.965Z,11.70
2023-05-14T21:22:15.090Z,11.70
2023-05-14T21:24:41.886Z,11.70
2023-05-14T21:27:09.576Z,11.70
2023-05-14T21:29:36.378Z,11.70
2023-05-14T21:32:03.453Z,11.70
2023-05-14T21:34:32.024Z,11.70
2023-05-14T21:37:00.502Z,11.60
2023-05-14T21:39:27.280Z,11.60
2023-05-14T21:41:54.158Z,11.60
2023-05-14T21:44:22.206Z,11.60
2023-05-14T21:46:49.024Z,11.60
2023-05-14T21:49:15.889Z,11.60
2023-05-14T21:51:43.664Z,11.60
2023-05-14T21:54:10.601Z,11.60
2023-05-14T21:56:38.766Z,11.60
2023-05-14T21:59:05.656Z,11.60
2023-05-14T22:01:33.797Z,11.60
2023-05-14T22:04:06.812Z,11.50
2023-05-14T22:06:33.722Z,11.50
2023-05-14T22:09:00.661Z,11.50
2023-05-14T22:11:28.028Z,11.50
2023-05-14T22:13:54.877Z,11.50
2023-05-14T22:16:22.809Z,11.50
2023-05-14T22:18:49.707Z,11.50
2023-05-14T22:21:16.570Z,11.50
2023-05-14T22:23:45.403Z,11.50
2023-05-14T22:26:12.408Z,11.50
2023-05-14T22:28:43.035Z,11.50
2023-05-14T22:31:11.569Z,11.50
2023-05-14T22:33:38.455Z,11.50
2023-05-14T22:36:07.176Z,11.40
2023-05-14T22:38:37.019Z,11.50
2023-05-14T22:41:04.003Z,11.40
2023-05-14T22:43:30.794Z,11.40
2023-05-14T22:45:59.088Z,11.40
2023-05-14T22:48:26.122Z,11.40
2023-05-14T22:50:53.415Z,11.40
2023-05-14T22:53:20.875Z,11.40
2023-05-14T22:55:47.842Z,11.40
2023-05-14T22:58:15.795Z,11.40
2023-05-14T23:00:42.765Z,11.40
2023-05-14T23:03:09.587Z,11.40
2023-05-14T23:05:36.352Z,11.40
2023-05-14T23:08:03.768Z,11.40
2023-05-14T23:10:31.276Z,11.40
2023-05-14T23:12:58.377Z,11.40
2023-05-14T23:15:25.494Z,11.30
2023-05-14T23:17:55.736Z,11.30
2023-05-14T23:20:22.577Z,11.30
2023-05-14T23:22:49.638Z,11.30
2023-05-14T23:25:16.569Z,11.30
2023-05-14T23:27:43.393Z,11.20
2023-05-14T23:30:11.589Z,11.30
2023-05-14T23:32:39.296Z,11.30
2023-05-14T23:35:07.269Z,11.30
2023-05-14T23:37:35.861Z,11.30
2023-05-14T23:40:02.804Z,11.30
2023-05-14T23:42:29.994Z,11.30
2023-05-14T23:44:56.826Z,11.20
2023-05-14T23:47:24.513Z,11.30
2023-05-14T23:49:51.325Z,11.20
2023-05-14T23:52:18.112Z,11.20
2023-05-14T23:54:46.094Z,11.30
2023-05-14T23:57:17.186Z,11.30
2023-05-14T23:59:44.033Z,11.30
